createdAt,value
2018-12-18T00:05:36.498Z,100473.00
2018-12-18T00:08:10.296Z,100473.00
2018-12-18T00:10:50.683Z,100470.00
2018-12-18T00:13:24.179Z,100458.00
2018-12-18T00:15:56.793Z,100459.00
2018-12-18T00:18:29.140Z,100460.00
2018-12-18T00:21:01.545Z,100464.00
2018-12-18T00:23:33.943Z,100471.00
2018-12-18T00:26:05.484Z,100464.00
2018-12-18T00:28:36.069Z,100463.00
2018-12-18T00:31:08.057Z,100462.00
2018-12-18T00:33:46.096Z,100470.00
2018-12-18T00:36:19.278Z,100456.00
2018-12-18T00:38:53.717Z,100460.00
2018-12-18T00:41:28.668Z,100452.00
2018-12-18T00:44:02.505Z,100454.00
2018-12-18T00:46:35.118Z,100458.00
2018-12-18T00:49:10.402Z,100463.00
2018-12-18T00:51:41.992Z,100461.00
2018-12-18T00:54:12.839Z,100471.00
2018-12-18T00:56:44.191Z,100468.00
2018-12-18T00:59:15.603Z,100462.00
2018-12-18T01:01:53.321Z,100465.00
2018-12-18T01:04:25.355Z,100470.00
2018-12-18T01:06:59.195Z,100467.00
2018-12-18T01:09:32.979Z,100474.00
2018-12-18T01:12:03.749Z,100473.00
2018-12-18T01:14:38.580Z,100477.00
2018-12-18T01:17:10.423Z,100476.00
2018-12-18T01:19:42.607Z,100481.00
2018-12-18T01:22:16.055Z,100474.00
2018-12-18T01:24:48.657Z,100479.00
2018-12-18T01:27:21.915Z,100474.00
2018-12-18T01:29:53.964Z,100485.00
2018-12-18T01:32:26.244Z,100480.00
2018-12-18T01:34:58.515Z,100480.00
2018-12-18T01:37:30.804Z,100477.00
2018-12-18T01:40:02.976Z,100479.00
2018-12-18T01:42:40.651Z,100477.00
2018-12-18T01:45:11.592Z,100476.00
2018-12-18T01:47:44.313Z,100475.00
2018-12-18T01:50:15.767Z,100472.00
2018-12-18T01:52:46.052Z,100474.00
2018-12-18T01:55:18.378Z,100476.00
2018-12-18T01:57:51.792Z,100474.00
2018-12-18T02:00:22.302Z,100467.00
2018-12-18T02:02:55.556Z,100465.00
2018-12-18T02:05:25.658Z,100468.00
2018-12-18T02:07:57.312Z,100470.00
2018-12-18T02:10:29.329Z,100472.00
2018-12-18T02:12:59.085Z,100475.00
2018-12-18T02:15:29.525Z,100474.00
2018-12-18T02:18:00.812Z,100479.00
2018-12-18T02:20:33.149Z,100475.00
2018-12-18T02:23:03.670Z,100482.00
2018-12-18T02:25:35.181Z,100460.00
2018-12-18T02:28:05.316Z,100482.00
2018-12-18T02:30:38.130Z,100486.00
2018-12-18T02:33:13.555Z,100487.00
2018-12-18T02:35:47.445Z,100492.00
2018-12-18T02:38:18.189Z,100495.00
2018-12-18T02:40:49.215Z,100504.00
2018-12-18T02:43:24.345Z,100508.00
2018-12-18T02:45:57.632Z,100509.00
2018-12-18T02:48:30.772Z,100508.00
2018-12-18T02:51:02.488Z,100510.00
2018-12-18T02:53:32.503Z,100509.00
2018-12-18T02:56:05.460Z,100504.00
2018-12-18T02:58:37.820Z,100497.00
2018-12-18T03:01:09.872Z,100500.00
2018-12-18T03:03:41.362Z,100493.00
2018-12-18T03:06:14.075Z,100500.00
2018-12-18T03:08:47.132Z,100504.00
2018-12-18T03:11:22.038Z,100496.00
2018-12-18T03:13:55.082Z,100501.00
2018-12-18T03:16:26.054Z,100497.00
2018-12-18T03:18:55.961Z,100500.00
2018-12-18T03:21:26.389Z,100506.00
2018-12-18T03:23:57.994Z,100491.00
2018-12-18T03:26:31.467Z,100507.00
2018-12-18T03:29:02.400Z,100507.00
2018-12-18T03:31:35.073Z,100504.00
2018-12-18T03:34:06.118Z,100504.00
2018-12-18T03:36:38.097Z,100502.00
2018-12-18T03:39:08.644Z,100497.00
2018-12-18T03:41:38.540Z,100501.00
2018-12-18T03:44:08.450Z,100491.00
2018-12-18T03:46:40.834Z,100486.00
2018-12-18T03:49:13.634Z,100504.00
2018-12-18T03:51:47.232Z,100496.00
2018-12-18T03:54:20.869Z,100493.00
2018-12-18T03:56:53.753Z,100495.00
2018-12-18T03:59:26.496Z,100491.00
2018-12-18T04:01:57.897Z,100502.00
2018-12-18T04:04:28.045Z,100497.00
2018-12-18T04:07:01.862Z,100493.00
2018-12-18T04:09:36.919Z,100496.00
2018-12-18T04:12:14.524Z,100490.00
2018-12-18T04:14:49.465Z,100498.00
2018-12-18T04:17:20.379Z,100499.00
2018-12-18T04:19:55.049Z,100504.00
2018-12-18T04:22:27.083Z,100512.00
2018-12-18T04:24:57.952Z,100505.00
2018-12-18T04:27:31.047Z,100511.00
2018-12-18T04:30:06.612Z,100511.00
2018-12-18T04:32:39.837Z,100504.00
2018-12-18T04:35:14.986Z,100503.00
2018-12-18T04:37:46.966Z,100508.00
2018-12-18T04:40:23.263Z,100512.00
2018-12-18T04:42:55.700Z,100522.00
2018-12-18T04:45:25.877Z,100516.00
2018-12-18T04:47:55.549Z,100516.00
2018-12-18T04:50:26.135Z,100529.00
2018-12-18T04:52:56.091Z,100531.00
2018-12-18T04:55:25.538Z,100525.00
2018-12-18T04:57:55.969Z,100531.00
2018-12-18T05:00:25.874Z,100536.00
2018-12-18T05:02:55.471Z,100537.00
2018-12-18T05:05:25.888Z,100532.00
2018-12-18T05:07:55.432Z,100532.00
2018-12-18T05:10:25.282Z,100527.00
2018-12-18T05:12:55.201Z,100527.00
2018-12-18T05:15:24.733Z,100529.00
2018-12-18T05:17:54.526Z,100535.00
2018-12-18T05:20:24.553Z,100542.00
2018-12-18T05:22:54.875Z,100539.00
2018-12-18T05:25:25.746Z,100538.00
2018-12-18T05:27:56.483Z,100548.00
2018-12-18T05:30:26.169Z,100550.00
2018-12-18T05:32:57.386Z,100540.00
2018-12-18T05:35:31.463Z,100547.00
2018-12-18T05:38:03.019Z,100540.00
2018-12-18T05:40:35.755Z,100549.00
2018-12-18T05:43:05.911Z,100546.00
2018-12-18T05:45:35.609Z,100553.00
2018-12-18T05:48:05.409Z,100544.00
2018-12-18T05:50:35.246Z,100556.00
2018-12-18T05:53:05.245Z,100556.00
2018-12-18T05:55:35.380Z,100552.00
2018-12-18T05:58:05.899Z,100558.00
2018-12-18T06:00:35.578Z,100562.00
2018-12-18T06:03:05.233Z,100564.00
2018-12-18T06:05:35.256Z,100570.00
2018-12-18T06:08:07.239Z,100571.00
2018-12-18T06:10:38.560Z,100564.00
2018-12-18T06:13:08.505Z,100572.00
2018-12-18T06:15:38.934Z,100579.00
2018-12-18T06:18:09.128Z,100582.00
2018-12-18T06:20:39.151Z,100588.00
2018-12-18T06:23:09.085Z,100594.00
2018-12-18T06:25:39.100Z,100587.00
2018-12-18T06:28:09.186Z,100586.00
2018-12-18T06:30:38.836Z,100582.00
2018-12-18T06:33:08.681Z,100592.00
2018-12-18T06:35:38.676Z,100594.00
2018-12-18T06:38:08.519Z,100594.00
2018-12-18T06:40:38.215Z,100595.00
2018-12-18T06:43:08.043Z,100587.00
2018-12-18T06:45:39.358Z,100603.00
2018-12-18T06:48:09.121Z,100600.00
2018-12-18T06:50:38.940Z,100611.00
2018-12-18T06:53:08.653Z,100603.00
2018-12-18T06:55:38.318Z,100607.00
2018-12-18T06:58:08.032Z,100603.00
2018-12-18T07:00:38.042Z,100608.00
2018-12-18T07:03:07.804Z,100600.00
2018-12-18T07:05:37.367Z,100604.00
2018-12-18T07:08:07.886Z,100604.00
2018-12-18T07:10:37.865Z,100604.00
2018-12-18T07:13:07.536Z,100595.00
2018-12-18T07:15:37.132Z,100604.00
2018-12-18T07:18:06.981Z,100603.00
2018-12-18T07:20:36.580Z,100609.00
2018-12-18T07:23:07.090Z,100621.00
2018-12-18T07:25:37.424Z,100608.00
2018-12-18T07:28:07.103Z,100610.00
2018-12-18T07:30:36.871Z,100607.00
2018-12-18T07:33:06.595Z,100615.00
2018-12-18T07:35:36.160Z,100619.00
2018-12-18T07:38:07.289Z,100622.00
2018-12-18T07:40:37.129Z,100611.00
2018-12-18T07:43:06.885Z,100608.00
2018-12-18T07:45:37.297Z,100611.00
2018-12-18T07:48:07.091Z,100608.00
2018-12-18T07:50:37.340Z,100624.00
2018-12-18T07:53:08.066Z,100619.00
2018-12-18T07:55:37.548Z,100609.00
2018-12-18T07:58:07.502Z,100612.00
2018-12-18T08:00:37.199Z,100614.00
2018-12-18T08:03:06.871Z,100610.00
2018-12-18T08:05:36.416Z,100609.00
2018-12-18T08:08:06.361Z,100613.00
2018-12-18T08:10:36.293Z,100616.00
2018-12-18T08:13:05.931Z,100603.00
2018-12-18T08:15:35.776Z,100609.00
2018-12-18T08:18:05.742Z,100605.00
2018-12-18T08:20:35.850Z,100603.00
2018-12-18T08:23:05.526Z,100616.00
2018-12-18T08:25:35.050Z,100611.00
2018-12-18T08:28:05.417Z,100620.00
2018-12-18T08:30:35.243Z,100621.00
2018-12-18T08:33:04.764Z,100625.00
2018-12-18T08:35:36.541Z,100620.00
2018-12-18T08:38:06.221Z,100626.00
2018-12-18T08:40:35.728Z,100618.00
2018-12-18T08:43:05.626Z,100623.00
2018-12-18T08:45:35.782Z,100627.00
2018-12-18T08:48:06.008Z,100630.00
2018-12-18T08:50:36.607Z,100634.00
2018-12-18T08:53:06.299Z,100636.00
2018-12-18T08:55:36.158Z,100637.00
2018-12-18T08:58:06.069Z,100640.00
2018-12-18T09:00:36.624Z,100643.00
2018-12-18T09:03:13.102Z,100643.00
2018-12-18T09:05:43.409Z,100642.00
2018-12-18T09:08:13.097Z,100638.00
2018-12-18T09:10:42.873Z,100640.00
2018-12-18T09:13:12.528Z,100654.00
2018-12-18T09:15:47.280Z,100652.00
2018-12-18T09:18:17.023Z,100657.00
2018-12-18T09:20:47.003Z,100662.00
2018-12-18T09:23:16.455Z,100659.00
2018-12-18T09:25:46.408Z,100663.00
2018-12-18T09:28:16.074Z,100647.00
2018-12-18T09:37:34.342Z,100654.00
2018-12-18T09:40:04.995Z,100659.00
2018-12-18T09:42:40.146Z,100646.00
2018-12-18T09:45:10.153Z,100642.00
2018-12-18T09:47:41.107Z,100639.00
2018-12-18T09:50:11.344Z,100640.00
2018-12-18T09:52:41.121Z,100636.00
2018-12-18T09:55:10.883Z,100641.00
2018-12-18T09:57:45.771Z,100641.00
2018-12-18T10:00:16.189Z,100636.00
2018-12-18T10:02:45.695Z,100637.00
2018-12-18T10:05:15.387Z,100633.00
2018-12-18T10:07:45.558Z,100633.00
2018-12-18T10:10:15.202Z,100639.00
2018-12-18T10:12:49.350Z,100628.00
2018-12-18T10:15:19.161Z,100627.00
2018-12-18T10:17:48.926Z,100626.00
2018-12-18T10:20:18.942Z,100619.00
2018-12-18T10:22:49.240Z,100630.00
2018-12-18T10:25:18.898Z,100624.00
2018-12-18T10:27:48.707Z,100626.00
2018-12-18T10:30:18.942Z,100628.00
2018-12-18T10:32:49.124Z,100633.00
2018-12-18T10:35:22.052Z,100623.00
2018-12-18T10:37:52.309Z,100624.00
2018-12-18T10:40:22.003Z,100625.00
2018-12-18T10:42:51.696Z,100619.00
2018-12-18T10:45:22.978Z,100622.00
2018-12-18T10:47:52.709Z,100619.00
2018-12-18T10:50:22.551Z,100627.00
2018-12-18T10:52:52.043Z,100623.00
2018-12-18T10:55:21.872Z,100621.00
2018-12-18T10:57:51.820Z,100618.00
2018-12-18T11:00:27.272Z,100607.00
2018-12-18T11:02:57.158Z,100616.00
2018-12-18T11:05:27.131Z,100616.00
2018-12-18T11:07:57.485Z,100606.00
2018-12-18T11:10:27.234Z,100610.00
2018-12-18T11:13:02.018Z,100600.00
2018-12-18T11:15:31.683Z,100596.00
2018-12-18T11:18:01.516Z,100589.00
2018-12-18T11:20:31.190Z,100583.00
2018-12-18T11:23:01.076Z,100571.00
2018-12-18T11:25:31.060Z,100559.00
2018-12-18T11:28:00.865Z,100559.00
2018-12-18T11:30:31.274Z,100552.00
2018-12-18T11:33:00.777Z,100553.00
2018-12-18T11:35:31.111Z,100544.00
2018-12-18T11:38:01.059Z,100544.00
2018-12-18T11:40:30.769Z,100540.00
2018-12-18T11:43:00.540Z,100544.00
2018-12-18T11:45:30.293Z,100532.00
2018-12-18T11:48:01.271Z,100527.00
2018-12-18T11:50:31.169Z,100527.00
2018-12-18T11:53:01.533Z,100519.00
2018-12-18T11:55:31.805Z,100518.00
2018-12-18T11:58:02.356Z,100509.00
2018-12-18T12:00:32.423Z,100508.00
2018-12-18T12:03:01.927Z,100503.00
2018-12-18T12:05:31.898Z,100495.00
2018-12-18T12:08:01.556Z,100497.00
2018-12-18T12:10:31.316Z,100498.00
2018-12-18T12:13:01.679Z,100490.00
2018-12-18T12:15:31.932Z,100497.00
2018-12-18T12:18:02.332Z,100491.00
2018-12-18T12:20:31.925Z,100476.00
2018-12-18T12:23:02.226Z,100480.00
2018-12-18T12:25:31.854Z,100479.00
2018-12-18T12:28:06.890Z,100492.00
2018-12-18T12:30:36.941Z,100489.00
2018-12-18T12:33:06.850Z,100487.00
2018-12-18T12:35:37.564Z,100478.00
2018-12-18T12:38:07.623Z,100470.00
2018-12-18T12:40:37.707Z,100469.00
2018-12-18T12:43:07.658Z,100461.00
2018-12-18T12:45:38.083Z,100462.00
2018-12-18T12:48:11.728Z,100453.00
2018-12-18T12:50:41.354Z,100462.00
2018-12-18T12:53:11.389Z,100468.00
2018-12-18T12:55:40.918Z,100462.00
2018-12-18T12:58:12.296Z,100454.00
2018-12-18T13:00:42.092Z,100443.00
2018-12-18T13:03:14.363Z,100458.00
2018-12-18T13:05:44.223Z,100446.00
2018-12-18T13:08:14.208Z,100449.00
2018-12-18T13:10:43.714Z,100440.00
2018-12-18T13:13:13.460Z,100441.00
2018-12-18T13:15:44.212Z,100441.00
2018-12-18T13:18:14.797Z,100442.00
2018-12-18T13:20:44.399Z,100442.00
2018-12-18T13:23:14.010Z,100448.00
2018-12-18T13:25:43.762Z,100444.00
2018-12-18T13:28:13.286Z,100444.00
2018-12-18T13:30:44.843Z,100445.00
2018-12-18T13:33:15.347Z,100426.00
2018-12-18T13:35:45.164Z,100429.00
2018-12-18T13:38:15.074Z,100431.00
2018-12-18T13:40:47.650Z,100422.00
2018-12-18T13:43:18.841Z,100408.00
2018-12-18T13:45:49.089Z,100409.00
2018-12-18T13:48:21.776Z,100417.00
2018-12-18T13:50:52.043Z,100420.00
2018-12-18T13:53:21.883Z,100420.00
2018-12-18T13:55:53.794Z,100416.00
2018-12-18T13:58:26.261Z,100414.00
2018-12-18T14:00:56.275Z,100417.00
2018-12-18T14:03:26.159Z,100408.00
2018-12-18T14:05:55.889Z,100415.00
2018-12-18T14:08:25.873Z,100413.00
2018-12-18T14:10:55.913Z,100407.00
2018-12-18T14:13:25.713Z,100408.00
2018-12-18T14:15:56.758Z,100411.00
2018-12-18T14:18:27.107Z,100412.00
2018-12-18T14:20:57.385Z,100403.00
2018-12-18T14:23:27.327Z,100406.00
2018-12-18T14:25:57.473Z,100397.00
2018-12-18T14:28:27.381Z,100400.00
2018-12-18T14:30:58.318Z,100397.00
2018-12-18T14:33:28.689Z,100409.00
2018-12-18T14:35:58.568Z,100398.00
2018-12-18T14:38:28.651Z,100403.00
2018-12-18T14:41:00.029Z,100407.00
2018-12-18T14:43:30.232Z,100403.00
2018-12-18T14:45:59.867Z,100399.00
2018-12-18T14:48:29.827Z,100400.00
2018-12-18T14:50:59.671Z,100388.00
2018-12-18T14:53:30.155Z,100385.00
2018-12-18T14:56:01.520Z,100397.00
2018-12-18T14:58:31.453Z,100390.00
2018-12-18T15:01:01.558Z,100391.00
2018-12-18T15:03:32.505Z,100393.00
2018-12-18T15:06:04.574Z,100385.00
2018-12-18T15:08:34.655Z,100380.00
2018-12-18T15:11:18.018Z,100369.00
2018-12-18T15:13:48.569Z,100371.00
2018-12-18T15:16:18.667Z,100374.00
2018-12-18T15:18:48.063Z,100374.00
2018-12-18T15:21:17.598Z,100371.00
2018-12-18T15:23:47.065Z,100371.00
2018-12-18T15:26:16.482Z,100375.00
2018-12-18T15:28:46.071Z,100377.00
2018-12-18T15:31:15.617Z,100379.00
2018-12-18T15:33:45.729Z,100378.00
2018-12-18T15:36:15.223Z,100380.00
2018-12-18T15:38:44.704Z,100377.00
2018-12-18T15:41:14.269Z,100365.00
2018-12-18T15:43:44.194Z,100366.00
2018-12-18T15:46:13.567Z,100366.00
2018-12-18T15:48:43.063Z,100375.00
2018-12-18T15:51:12.536Z,100372.00
2018-12-18T15:53:41.987Z,100369.00
2018-12-18T15:56:11.627Z,100358.00
2018-12-18T15:58:41.633Z,100373.00
2018-12-18T16:01:11.686Z,100380.00
2018-12-18T16:03:41.238Z,100375.00
2018-12-18T16:06:10.770Z,100372.00
2018-12-18T16:08:41.341Z,100379.00
2018-12-18T16:11:10.819Z,100375.00
2018-12-18T16:13:40.534Z,100369.00
2018-12-18T16:16:10.249Z,100364.00
2018-12-18T16:18:39.656Z,100375.00
2018-12-18T16:21:09.220Z,100372.00
2018-12-18T16:23:38.637Z,100374.00
2018-12-18T16:26:08.280Z,100378.00
2018-12-18T16:28:37.894Z,100367.00
2018-12-18T16:31:07.379Z,100369.00
2018-12-18T16:33:36.837Z,100376.00
2018-12-18T16:36:06.510Z,100369.00
2018-12-18T16:38:35.998Z,100386.00
2018-12-18T16:41:05.727Z,100384.00
2018-12-18T16:43:35.243Z,100382.00
2018-12-18T16:46:04.719Z,100381.00
2018-12-18T16:48:34.356Z,100379.00
2018-12-18T16:51:03.750Z,100390.00
2018-12-18T16:53:33.291Z,100399.00
2018-12-18T16:56:02.729Z,100408.00
2018-12-18T16:58:32.368Z,100401.00
2018-12-18T17:01:01.990Z,100411.00
2018-12-18T17:03:31.451Z,100412.00
2018-12-18T17:06:01.662Z,100410.00
2018-12-18T17:08:32.191Z,100412.00
2018-12-18T17:11:01.915Z,100413.00
2018-12-18T17:13:31.255Z,100404.00
2018-12-18T17:16:00.726Z,100395.00
2018-12-18T17:18:31.420Z,100396.00
2018-12-18T17:21:01.018Z,100404.00
2018-12-18T17:23:30.414Z,100404.00
2018-12-18T17:26:00.116Z,100404.00
2018-12-18T17:28:29.490Z,100399.00
2018-12-18T17:30:59.846Z,100407.00
2018-12-18T17:33:29.866Z,100412.00
2018-12-18T17:36:00.378Z,100403.00
2018-12-18T17:38:30.079Z,100403.00
2018-12-18T17:41:00.509Z,100396.00
2018-12-18T17:43:30.562Z,100385.00
2018-12-18T17:46:00.065Z,100377.00
2018-12-18T17:48:30.713Z,100376.00
2018-12-18T17:51:00.257Z,100389.00
2018-12-18T17:53:30.440Z,100382.00
2018-12-18T17:55:59.930Z,100378.00
2018-12-18T17:58:29.533Z,100376.00
2018-12-18T18:00:59.128Z,100362.00
2018-12-18T18:03:28.612Z,100361.00
2018-12-18T18:05:58.191Z,100364.00
2018-12-18T18:08:27.705Z,100368.00
2018-12-18T18:10:57.305Z,100375.00
2018-12-18T18:13:26.721Z,100363.00
2018-12-18T18:15:56.322Z,100360.00
2018-12-18T18:18:25.777Z,100369.00
2018-12-18T18:20:55.232Z,100362.00
2018-12-18T18:23:24.783Z,100368.00
2018-12-18T18:25:54.403Z,100362.00
2018-12-18T18:28:23.795Z,100358.00
2018-12-18T18:30:53.232Z,100378.00
2018-12-18T18:33:22.665Z,100366.00
2018-12-18T18:35:52.014Z,100364.00
2018-12-18T18:38:21.478Z,100365.00
2018-12-18T18:40:51.013Z,100370.00
2018-12-18T18:43:21.036Z,100358.00
2018-12-18T18:45:50.436Z,100360.00
2018-12-18T18:48:20.214Z,100351.00
2018-12-18T18:50:50.266Z,100348.00
2018-12-18T18:53:19.912Z,100354.00
2018-12-18T18:55:49.408Z,100349.00
2018-12-18T18:58:19.237Z,100338.00
2018-12-18T19:00:48.679Z,100339.00
2018-12-18T19:03:18.227Z,100338.00
2018-12-18T19:05:47.968Z,100333.00
2018-12-18T19:08:17.514Z,100323.00
2018-12-18T19:10:46.995Z,100335.00
2018-12-18T19:13:16.552Z,100332.00
2018-12-18T19:15:46.213Z,100325.00
2018-12-18T19:18:15.630Z,100330.00
2018-12-18T19:20:45.066Z,100323.00
2018-12-18T19:23:14.816Z,100319.00
2018-12-18T19:25:44.308Z,100308.00
2018-12-18T19:28:13.746Z,100307.00
2018-12-18T19:30:43.272Z,100313.00
2018-12-18T19:33:13.021Z,100298.00
2018-12-18T19:35:43.269Z,100292.00
2018-12-18T19:38:12.743Z,100288.00
2018-12-18T19:40:42.145Z,100288.00
2018-12-18T19:43:12.249Z,100282.00
2018-12-18T19:45:41.981Z,100283.00
2018-12-18T19:48:11.820Z,100276.00
2018-12-18T19:50:42.945Z,100283.00
2018-12-18T19:53:13.399Z,100285.00
2018-12-18T19:55:42.968Z,100288.00
2018-12-18T19:58:13.638Z,100286.00
2018-12-18T20:00:43.256Z,100284.00
2018-12-18T20:03:12.857Z,100276.00
2018-12-18T20:05:42.613Z,100271.00
2018-12-18T20:08:12.237Z,100265.00
2018-12-18T20:10:43.144Z,100266.00
2018-12-18T20:13:12.745Z,100271.00
2018-12-18T20:15:42.789Z,100273.00
2018-12-18T20:18:12.248Z,100251.00
2018-12-18T20:20:41.724Z,100252.00
2018-12-18T20:23:11.225Z,100251.00
2018-12-18T20:25:40.946Z,100245.00
2018-12-18T20:28:10.552Z,100247.00
2018-12-18T20:30:40.486Z,100251.00
2018-12-18T20:33:10.204Z,100241.00
2018-12-18T20:35:40.287Z,100233.00
2018-12-18T20:38:16.623Z,100225.00
2018-12-18T20:40:41.611Z,100221.00
2018-12-18T20:43:11.150Z,100218.00
2018-12-18T20:45:40.696Z,100214.00
2018-12-18T20:48:10.377Z,100213.00
2018-12-18T20:50:40.495Z,100203.00
2018-12-18T20:53:10.198Z,100204.00
2018-12-18T20:55:39.699Z,100202.00
2018-12-18T20:58:09.269Z,100195.00
2018-12-18T21:00:38.927Z,100211.00
2018-12-18T21:03:09.072Z,100208.00
2018-12-18T21:05:38.722Z,100216.00
2018-12-18T21:08:08.640Z,100212.00
2018-12-18T21:10:38.204Z,100198.00
2018-12-18T21:13:13.117Z,100196.00
2018-12-18T21:15:42.775Z,100191.00
2018-12-18T21:18:12.404Z,100192.00
2018-12-18T21:20:42.100Z,100187.00
2018-12-18T21:23:11.465Z,100186.00
2018-12-18T21:25:40.982Z,100175.00
2018-12-18T21:28:10.612Z,100174.00
2018-12-18T21:30:40.119Z,100171.00
2018-12-18T21:33:09.619Z,100164.00
2018-12-18T21:35:39.216Z,100162.00
2018-12-18T21:38:08.641Z,100162.00
2018-12-18T21:40:38.989Z,100162.00
2018-12-18T21:43:08.774Z,100158.00
2018-12-18T21:45:38.401Z,100147.00
2018-12-18T21:48:07.815Z,100152.00
2018-12-18T21:50:37.323Z,100147.00
2018-12-18T21:53:06.826Z,100146.00
2018-12-18T21:55:36.320Z,100143.00
2018-12-18T21:58:05.946Z,100144.00
2018-12-18T22:00:35.427Z,100151.00
2018-12-18T22:03:05.045Z,100139.00
2018-12-18T22:05:34.570Z,100145.00
2018-12-18T22:08:04.093Z,100145.00
2018-12-18T22:10:33.571Z,100134.00
2018-12-18T22:13:03.200Z,100137.00
2018-12-18T22:15:32.601Z,100128.00
2018-12-18T22:18:02.209Z,100116.00
2018-12-18T22:20:31.793Z,100113.00
2018-12-18T22:23:01.315Z,100121.00
2018-12-18T22:25:30.984Z,100106.00
2018-12-18T22:28:00.663Z,100100.00
2018-12-18T22:30:30.495Z,100090.00
2018-12-18T22:33:00.176Z,100097.00
2018-12-18T22:35:29.663Z,100088.00
2018-12-18T22:37:59.112Z,100094.00
2018-12-18T22:40:28.692Z,100084.00
2018-12-18T22:42:58.405Z,100078.00
2018-12-18T22:45:28.089Z,100064.00
2018-12-18T22:47:57.602Z,100060.00
2018-12-18T22:50:27.945Z,100063.00
2018-12-18T22:52:58.909Z,100054.00
2018-12-18T22:55:28.528Z,100048.00
2018-12-18T22:57:58.263Z,100048.00
2018-12-18T23:00:32.984Z,100035.00
2018-12-18T23:03:02.464Z,100046.00
2018-12-18T23:05:32.285Z,100046.00
2018-12-18T23:08:01.706Z,100032.00
2018-12-18T23:10:31.386Z,100035.00
2018-12-18T23:13:00.910Z,100035.00
2018-12-18T23:15:30.371Z,100028.00
2018-12-18T23:18:01.094Z,100026.00
2018-12-18T23:20:30.678Z,100018.00
2018-12-18T23:23:00.712Z,100014.00
2018-12-18T23:25:30.661Z,100013.00
2018-12-18T23:28:00.185Z,100015.00
2018-12-18T23:30:29.607Z,100005.00
2018-12-18T23:32:59.291Z,100002.00
2018-12-18T23:35:29.590Z,100000.00
2018-12-18T23:37:59.039Z,99988.00
2018-12-18T23:40:28.547Z,99981.00
2018-12-18T23:42:58.605Z,99982.00
2018-12-18T23:45:28.731Z,99980.00
2018-12-18T23:47:58.232Z,99974.00
2018-12-18T23:50:28.054Z,99975.00
2018-12-18T23:52:57.880Z,99962.00
2018-12-18T23:55:27.466Z,99965.00
2018-12-18T23:57:56.981Z,99967.00
